sensor_id;sensor_type;location;lat;lon;timestamp;temperature;humidity
55004;DHT22;40900;52.710;6.438;2023-05-10T00:01:24;13.20;99.90
55004;DHT22;40900;52.710;6.438;2023-05-10T00:03:50;13.20;99.90
55004;DHT22;40900;52.710;6.438;2023-05-10T00:06:16;13.20;99.90
55004;DHT22;40900;52.710;6.438;2023-05-10T00:08:42;13.20;99.90
55004;DHT22;40900;52.710;6.438;2023-05-10T00:11:08;13.20;99.90
55004;DHT22;40900;52.710;6.438;2023-05-10T00:13:33;13.20;99.90
55004;DHT22;40900;52.710;6.438;2023-05-10T00:15:59;13.20;99.90
55004;DHT22;40900;52.710;6.438;2023-05-10T00:18:25;13.10;99.90
55004;DHT22;40900;52.710;6.438;2023-05-10T00:20:51;13.10;99.90
55004;DHT22;40900;52.710;6.438;2023-05-10T00:23:16;13.10;99.90
55004;DHT22;40900;52.710;6.438;2023-05-10T00:25:42;13.10;99.90
55004;DHT22;40900;52.710;6.438;2023-05-10T00:28:08;13.10;99.90
55004;DHT22;40900;52.710;6.438;2023-05-10T00:30:33;13.00;99.90
55004;DHT22;40900;52.710;6.438;2023-05-10T00:32:59;13.10;99.90
55004;DHT22;40900;52.710;6.438;2023-05-10T00:35:25;13.00;99.90
55004;DHT22;40900;52.710;6.438;2023-05-10T00:37:51;13.00;99.90
55004;DHT22;40900;52.710;6.438;2023-05-10T00:40:17;13.10;99.90
55004;DHT22;40900;52.710;6.438;2023-05-10T00:42:42;13.00;99.90
55004;DHT22;40900;52.710;6.438;2023-05-10T00:45:08;13.00;99.90
55004;DHT22;40900;52.710;6.438;2023-05-10T00:47:34;13.00;99.90
55004;DHT22;40900;52.710;6.438;2023-05-10T00:50:00;12.90;99.90
55004;DHT22;40900;52.710;6.438;2023-05-10T00:52:30;12.90;99.90
55004;DHT22;40900;52.710;6.438;2023-05-10T00:54:56;13.00;99.90
55004;DHT22;40900;52.710;6.438;2023-05-10T00:57:22;12.90;99.90
55004;DHT22;40900;52.710;6.438;2023-05-10T00:59:48;13.00;99.90
55004;DHT22;40900;52.710;6.438;2023-05-10T01:02:14;13.00;99.90
55004;DHT22;40900;52.710;6.438;2023-05-10T01:04:40;13.00;99.90
55004;DHT22;40900;52.710;6.438;2023-05-10T01:07:06;13.00;99.90
55004;DHT22;40900;52.710;6.438;2023-05-10T01:09:32;13.00;99.90
55004;DHT22;40900;52.710;6.438;2023-05-10T01:11:59;13.00;99.90
55004;DHT22;40900;52.710;6.438;2023-05-10T01:14:26;13.00;99.90
55004;DHT22;40900;52.710;6.438;2023-05-10T01:16:52;13.10;99.90
55004;DHT22;40900;52.710;6.438;2023-05-10T01:19:29;13.00;99.90
55004;DHT22;40900;52.710;6.438;2023-05-10T01:33:33;13.10;99.90
55004;DHT22;40900;52.710;6.438;2023-05-10T01:36:23;13.10;99.90
55004;DHT22;40900;52.710;6.438;2023-05-10T01:41:52;13.00;99.90
55004;DHT22;40900;52.710;6.438;2023-05-10T01:47:22;13.00;99.90
55004;DHT22;40900;52.710;6.438;2023-05-10T01:55:02;13.00;99.90
55004;DHT22;40900;52.710;6.438;2023-05-10T01:57:35;13.00;99.90
55004;DHT22;40900;52.710;6.438;2023-05-10T02:00:03;13.10;99.90
55004;DHT22;40900;52.710;6.438;2023-05-10T02:02:31;13.00;99.90
55004;DHT22;40900;52.710;6.438;2023-05-10T02:04:59;13.10;99.90
55004;DHT22;40900;52.710;6.438;2023-05-10T02:07:27;13.10;99.90
55004;DHT22;40900;52.710;6.438;2023-05-10T02:09:53;13.10;99.90
55004;DHT22;40900;52.710;6.438;2023-05-10T02:12:20;13.00;99.90
55004;DHT22;40900;52.710;6.438;2023-05-10T02:14:47;13.00;99.90
55004;DHT22;40900;52.710;6.438;2023-05-10T02:17:15;13.00;99.90
55004;DHT22;40900;52.710;6.438;2023-05-10T02:19:42;13.00;99.90
55004;DHT22;40900;52.710;6.438;2023-05-10T02:22:09;13.00;99.90
55004;DHT22;40900;52.710;6.438;2023-05-10T02:24:36;13.00;99.90
55004;DHT22;40900;52.710;6.438;2023-05-10T02:27:03;13.00;99.90
55004;DHT22;40900;52.710;6.438;2023-05-10T02:29:31;12.90;99.90
55004;DHT22;40900;52.710;6.438;2023-05-10T02:31:58;12.90;99.90
55004;DHT22;40900;52.710;6.438;2023-05-10T02:34:27;12.90;99.90
55004;DHT22;40900;52.710;6.438;2023-05-10T02:36:55;12.90;99.90
55004;DHT22;40900;52.710;6.438;2023-05-10T02:39:22;12.90;99.90
55004;DHT22;40900;52.710;6.438;2023-05-10T02:41:49;13.00;99.90
55004;DHT22;40900;52.710;6.438;2023-05-10T02:44:18;13.00;99.90
55004;DHT22;40900;52.710;6.438;2023-05-10T02:46:45;13.00;99.90
55004;DHT22;40900;52.710;6.438;2023-05-10T02:49:11;12.90;99.90
55004;DHT22;40900;52.710;6.438;2023-05-10T02:51:42;13.00;99.90
55004;DHT22;40900;52.710;6.438;2023-05-10T02:54:24;13.00;99.90
55004;DHT22;40900;52.710;6.438;2023-05-10T02:57:04;13.00;99.90
55004;DHT22;40900;52.710;6.438;2023-05-10T02:59:30;12.90;99.90
55004;DHT22;40900;52.710;6.438;2023-05-10T03:01:59;12.90;99.90
55004;DHT22;40900;52.710;6.438;2023-05-10T03:04:25;12.90;99.90
55004;DHT22;40900;52.710;6.438;2023-05-10T03:06:51;12.90;99.90
55004;DHT22;40900;52.710;6.438;2023-05-10T03:09:18;12.80;99.90
55004;DHT22;40900;52.710;6.438;2023-05-10T03:20:18;12.80;99.90
55004;DHT22;40900;52.710;6.438;2023-05-10T03:22:49;12.80;99.90
55004;DHT22;40900;52.710;6.438;2023-05-10T03:25:16;12.80;99.90
55004;DHT22;40900;52.710;6.438;2023-05-10T03:27:43;12.90;99.90
55004;DHT22;40900;52.710;6.438;2023-05-10T03:30:13;12.80;99.90
55004;DHT22;40900;52.710;6.438;2023-05-10T03:32:39;12.80;99.90
55004;DHT22;40900;52.710;6.438;2023-05-10T03:35:09;12.70;99.90
55004;DHT22;40900;52.710;6.438;2023-05-10T03:37:35;12.70;99.90
55004;DHT22;40900;52.710;6.438;2023-05-10T03:40:02;12.80;99.90
55004;DHT22;40900;52.710;6.438;2023-05-10T03:42:28;12.90;99.90
55004;DHT22;40900;52.710;6.438;2023-05-10T03:44:54;12.80;99.90
55004;DHT22;40900;52.710;6.438;2023-05-10T03:47:19;12.90;99.90
55004;DHT22;40900;52.710;6.438;2023-05-10T03:49:45;12.90;99.90
55004;DHT22;40900;52.710;6.438;2023-05-10T03:52:11;12.90;99.90
55004;DHT22;40900;52.710;6.438;2023-05-10T03:54:37;12.90;99.90
55004;DHT22;40900;52.710;6.438;2023-05-10T03:57:03;12.80;99.90
55004;DHT22;40900;52.710;6.438;2023-05-10T03:59:29;12.70;99.90
55004;DHT22;40900;52.710;6.438;2023-05-10T04:01:55;12.70;99.90
55004;DHT22;40900;52.710;6.438;2023-05-10T04:04:21;12.70;99.90
55004;DHT22;40900;52.710;6.438;2023-05-10T04:06:48;12.80;99.90
55004;DHT22;40900;52.710;6.438;2023-05-10T04:09:14;12.70;99.90
55004;DHT22;40900;52.710;6.438;2023-05-10T04:11:40;12.60;99.90
55004;DHT22;40900;52.710;6.438;2023-05-10T04:14:06;12.60;99.90
55004;DHT22;40900;52.710;6.438;2023-05-10T04:16:32;12.60;99.90
55004;DHT22;40900;52.710;6.438;2023-05-10T04:18:57;12.60;99.90
55004;DHT22;40900;52.710;6.438;2023-05-10T04:21:23;12.60;99.90
55004;DHT22;40900;52.710;6.438;2023-05-10T04:23:50;12.60;99.90
55004;DHT22;40900;52.710;6.438;2023-05-10T04:26:15;12.50;99.90
55004;DHT22;40900;52.710;6.438;2023-05-10T04:28:41;12.50;99.90
55004;DHT22;40900;52.710;6.438;2023-05-10T04:31:09;12.50;99.90
55004;DHT22;40900;52.710;6.438;2023-05-10T04:33:35;12.50;99.90
55004;DHT22;40900;52.710;6.438;2023-05-10T04:36:02;12.40;99.90
55004;DHT22;40900;52.710;6.438;2023-05-10T04:38:28;12.50;99.90
55004;DHT22;40900;52.710;6.438;2023-05-10T04:40:54;12.40;99.90
55004;DHT22;40900;52.710;6.438;2023-05-10T04:43:20;12.50;99.90
55004;DHT22;40900;52.710;6.438;2023-05-10T04:45:46;12.50;99.90
55004;DHT22;40900;52.710;6.438;2023-05-10T04:48:11;12.50;99.90
55004;DHT22;40900;52.710;6.438;2023-05-10T04:50:38;12.50;99.90
55004;DHT22;40900;52.710;6.438;2023-05-10T04:53:04;12.40;99.90
55004;DHT22;40900;52.710;6.438;2023-05-10T04:55:30;12.40;99.90
55004;DHT22;40900;52.710;6.438;2023-05-10T04:57:56;12.40;99.90
55004;DHT22;40900;52.710;6.438;2023-05-10T05:00:23;12.40;99.90
55004;DHT22;40900;52.710;6.438;2023-05-10T05:02:49;12.40;99.90
55004;DHT22;40900;52.710;6.438;2023-05-10T05:05:15;12.40;99.90
55004;DHT22;40900;52.710;6.438;2023-05-10T05:07:40;12.50;99.90
55004;DHT22;40900;52.710;6.438;2023-05-10T05:10:07;12.50;99.90
55004;DHT22;40900;52.710;6.438;2023-05-10T05:12:34;12.60;99.90
55004;DHT22;40900;52.710;6.438;2023-05-10T05:15:00;12.60;99.90
55004;DHT22;40900;52.710;6.438;2023-05-10T05:17:25;12.60;99.90
55004;DHT22;40900;52.710;6.438;2023-05-10T05:19:51;12.70;99.90
55004;DHT22;40900;52.710;6.438;2023-05-10T05:22:17;12.70;99.90
55004;DHT22;40900;52.710;6.438;2023-05-10T05:24:45;12.70;99.90
55004;DHT22;40900;52.710;6.438;2023-05-10T05:27:11;12.70;99.90
55004;DHT22;40900;52.710;6.438;2023-05-10T05:29:36;12.70;99.90
55004;DHT22;40900;52.710;6.438;2023-05-10T05:32:02;12.70;99.90
55004;DHT22;40900;52.710;6.438;2023-05-10T05:34:28;12.70;99.90
55004;DHT22;40900;52.710;6.438;2023-05-10T05:36:54;12.70;99.90
55004;DHT22;40900;52.710;6.438;2023-05-10T05:39:20;12.70;99.90
55004;DHT22;40900;52.710;6.438;2023-05-10T05:41:46;12.70;99.90
55004;DHT22;40900;52.710;6.438;2023-05-10T05:44:12;12.70;99.90
55004;DHT22;40900;52.710;6.438;2023-05-10T05:46:38;12.80;99.90
55004;DHT22;40900;52.710;6.438;2023-05-10T05:49:04;12.80;99.90
55004;DHT22;40900;52.710;6.438;2023-05-10T05:51:30;12.80;99.90
55004;DHT22;40900;52.710;6.438;2023-05-10T05:53:56;12.80;99.90
55004;DHT22;40900;52.710;6.438;2023-05-10T05:56:22;12.90;99.90
55004;DHT22;40900;52.710;6.438;2023-05-10T05:58:52;12.80;99.90
55004;DHT22;40900;52.710;6.438;2023-05-10T06:01:18;12.80;99.90
55004;DHT22;40900;52.710;6.438;2023-05-10T06:03:44;12.80;99.90
55004;DHT22;40900;52.710;6.438;2023-05-10T06:06:10;12.90;99.90
55004;DHT22;40900;52.710;6.438;2023-05-10T06:08:35;12.90;99.90
55004;DHT22;40900;52.710;6.438;2023-05-10T06:11:01;12.90;99.90
55004;DHT22;40900;52.710;6.438;2023-05-10T06:13:27;13.00;99.90
55004;DHT22;40900;52.710;6.438;2023-05-10T06:15:58;13.00;99.90
55004;DHT22;40900;52.710;6.438;2023-05-10T06:18:24;12.90;99.90
55004;DHT22;40900;52.710;6.438;2023-05-10T06:20:50;13.00;99.90
55004;DHT22;40900;52.710;6.438;2023-05-10T06:23:17;12.90;99.90
55004;DHT22;40900;52.710;6.438;2023-05-10T06:25:42;13.00;99.90
55004;DHT22;40900;52.710;6.438;2023-05-10T06:28:08;13.00;99.90
55004;DHT22;40900;52.710;6.438;2023-05-10T06:30:36;13.10;99.90
55004;DHT22;40900;52.710;6.438;2023-05-10T06:33:02;13.00;99.90
55004;DHT22;40900;52.710;6.438;2023-05-10T06:35:28;13.10;99.90
55004;DHT22;40900;52.710;6.438;2023-05-10T06:37:54;13.20;99.90
55004;DHT22;40900;52.710;6.438;2023-05-10T06:40:20;13.10;99.90
55004;DHT22;40900;52.710;6.438;2023-05-10T06:42:47;13.20;99.90
55004;DHT22;40900;52.710;6.438;2023-05-10T06:45:14;13.20;99.90
55004;DHT22;40900;52.710;6.438;2023-05-10T06:47:40;13.30;99.90
55004;DHT22;40900;52.710;6.438;2023-05-10T06:50:08;13.40;99.90
55004;DHT22;40900;52.710;6.438;2023-05-10T06:52:34;13.40;99.90
55004;DHT22;40900;52.710;6.438;2023-05-10T06:54:59;13.50;99.90
55004;DHT22;40900;52.710;6.438;2023-05-10T06:57:26;13.50;99.90
55004;DHT22;40900;52.710;6.438;2023-05-10T06:59:52;13.60;99.90
55004;DHT22;40900;52.710;6.438;2023-05-10T07:02:17;13.50;99.90
55004;DHT22;40900;52.710;6.438;2023-05-10T07:04:43;13.60;99.90
55004;DHT22;40900;52.710;6.438;2023-05-10T07:07:09;13.60;99.90
55004;DHT22;40900;52.710;6.438;2023-05-10T07:09:35;13.60;99.90
55004;DHT22;40900;52.710;6.438;2023-05-10T07:12:01;13.70;99.90
55004;DHT22;40900;52.710;6.438;2023-05-10T07:14:27;13.70;99.90
55004;DHT22;40900;52.710;6.438;2023-05-10T07:16:53;13.70;99.90
55004;DHT22;40900;52.710;6.438;2023-05-10T07:19:19;13.70;99.90
55004;DHT22;40900;52.710;6.438;2023-05-10T07:21:45;13.60;99.90
55004;DHT22;40900;52.710;6.438;2023-05-10T07:24:11;13.70;99.90
55004;DHT22;40900;52.710;6.438;2023-05-10T07:26:37;13.70;99.90
55004;DHT22;40900;52.710;6.438;2023-05-10T07:29:03;13.80;99.90
55004;DHT22;40900;52.710;6.438;2023-05-10T07:31:28;13.80;99.90
55004;DHT22;40900;52.710;6.438;2023-05-10T07:33:54;13.80;99.90
55004;DHT22;40900;52.710;6.438;2023-05-10T07:36:20;13.80;99.90
55004;DHT22;40900;52.710;6.438;2023-05-10T07:38:45;13.90;99.90
55004;DHT22;40900;52.710;6.438;2023-05-10T07:41:12;13.80;99.90
55004;DHT22;40900;52.710;6.438;2023-05-10T07:43:37;13.80;99.90
55004;DHT22;40900;52.710;6.438;2023-05-10T07:46:04;13.80;99.90
55004;DHT22;40900;52.710;6.438;2023-05-10T07:48:30;13.70;99.90
55004;DHT22;40900;52.710;6.438;2023-05-10T07:50:56;13.80;99.90
55004;DHT22;40900;52.710;6.438;2023-05-10T07:53:22;13.70;99.90
55004;DHT22;40900;52.710;6.438;2023-05-10T07:55:51;13.80;99.90
55004;DHT22;40900;52.710;6.438;2023-05-10T07:58:20;13.80;99.90
55004;DHT22;40900;52.710;6.438;2023-05-10T08:00:45;13.80;99.90
55004;DHT22;40900;52.710;6.438;2023-05-10T08:03:11;13.90;99.90
55004;DHT22;40900;52.710;6.438;2023-05-10T08:05:37;13.90;99.90
55004;DHT22;40900;52.710;6.438;2023-05-10T08:08:03;14.10;99.90
55004;DHT22;40900;52.710;6.438;2023-05-10T08:10:29;14.40;99.90
55004;DHT22;40900;52.710;6.438;2023-05-10T08:12:54;14.90;99.90
55004;DHT22;40900;52.710;6.438;2023-05-10T08:15:20;15.30;99.90
55004;DHT22;40900;52.710;6.438;2023-05-10T08:17:46;15.50;99.90
55004;DHT22;40900;52.710;6.438;2023-05-10T08:20:12;15.40;99.90
55004;DHT22;40900;52.710;6.438;2023-05-10T08:22:38;15.60;99.90
55004;DHT22;40900;52.710;6.438;2023-05-10T08:25:04;15.50;99.90
55004;DHT22;40900;52.710;6.438;2023-05-10T08:27:30;15.50;99.90
55004;DHT22;40900;52.710;6.438;2023-05-10T08:29:56;15.40;99.90
55004;DHT22;40900;52.710;6.438;2023-05-10T08:32:21;15.50;99.90
55004;DHT22;40900;52.710;6.438;2023-05-10T08:34:47;15.50;99.90
55004;DHT22;40900;52.710;6.438;2023-05-10T08:37:13;15.40;99.90
55004;DHT22;40900;52.710;6.438;2023-05-10T08:39:39;15.40;99.90
55004;DHT22;40900;52.710;6.438;2023-05-10T08:42:05;15.30;99.90
55004;DHT22;40900;52.710;6.438;2023-05-10T08:44:34;15.30;99.90
55004;DHT22;40900;52.710;6.438;2023-05-10T08:47:05;15.10;99.90
55004;DHT22;40900;52.710;6.438;2023-05-10T08:49:33;15.20;99.90
55004;DHT22;40900;52.710;6.438;2023-05-10T08:52:04;14.90;99.90
55004;DHT22;40900;52.710;6.438;2023-05-10T08:54:32;15.00;99.90
55004;DHT22;40900;52.710;6.438;2023-05-10T08:56:58;15.00;99.90
55004;DHT22;40900;52.710;6.438;2023-05-10T08:59:24;14.90;99.90
55004;DHT22;40900;52.710;6.438;2023-05-10T09:01:50;14.90;99.90
55004;DHT22;40900;52.710;6.438;2023-05-10T09:04:16;14.90;99.90
55004;DHT22;40900;52.710;6.438;2023-05-10T09:06:48;14.90;99.90
55004;DHT22;40900;52.710;6.438;2023-05-10T09:09:14;14.90;99.90
55004;DHT22;40900;52.710;6.438;2023-05-10T09:11:41;15.00;99.90
55004;DHT22;40900;52.710;6.438;2023-05-10T09:14:08;15.10;99.90
55004;DHT22;40900;52.710;6.438;2023-05-10T09:16:34;15.00;99.90
55004;DHT22;40900;52.710;6.438;2023-05-10T09:19:00;15.00;99.90
55004;DHT22;40900;52.710;6.438;2023-05-10T09:21:26;15.00;99.90
55004;DHT22;40900;52.710;6.438;2023-05-10T09:23:52;15.00;99.90
55004;DHT22;40900;52.710;6.438;2023-05-10T09:26:23;15.00;99.90
55004;DHT22;40900;52.710;6.438;2023-05-10T09:28:54;15.00;99.90
55004;DHT22;40900;52.710;6.438;2023-05-10T09:31:21;15.00;99.90
55004;DHT22;40900;52.710;6.438;2023-05-10T09:33:48;15.10;99.90
55004;DHT22;40900;52.710;6.438;2023-05-10T09:36:14;15.10;99.90
55004;DHT22;40900;52.710;6.438;2023-05-10T09:38:51;15.10;99.90
55004;DHT22;40900;52.710;6.438;2023-05-10T09:41:18;15.10;99.90
55004;DHT22;40900;52.710;6.438;2023-05-10T09:43:44;15.10;99.90
55004;DHT22;40900;52.710;6.438;2023-05-10T09:46:10;15.10;99.90
55004;DHT22;40900;52.710;6.438;2023-05-10T09:48:47;15.10;99.90
55004;DHT22;40900;52.710;6.438;2023-05-10T09:51:23;15.10;99.90
55004;DHT22;40900;52.710;6.438;2023-05-10T09:54:09;15.20;99.90
55004;DHT22;40900;52.710;6.438;2023-05-10T09:56:36;15.30;99.90
55004;DHT22;40900;52.710;6.438;2023-05-10T09:59:04;15.30;99.90
55004;DHT22;40900;52.710;6.438;2023-05-10T10:01:31;15.30;99.90
55004;DHT22;40900;52.710;6.438;2023-05-10T10:03:57;15.30;99.90
55004;DHT22;40900;52.710;6.438;2023-05-10T10:06:24;15.30;99.90
55004;DHT22;40900;52.710;6.438;2023-05-10T10:08:51;15.30;99.90
55004;DHT22;40900;52.710;6.438;2023-05-10T10:11:17;15.30;99.90
55004;DHT22;40900;52.710;6.438;2023-05-10T10:13:43;15.20;99.90
55004;DHT22;40900;52.710;6.438;2023-05-10T10:16:09;15.20;99.90
55004;DHT22;40900;52.710;6.438;2023-05-10T10:18:36;15.20;99.90
55004;DHT22;40900;52.710;6.438;2023-05-10T10:21:07;15.30;99.90
55004;DHT22;40900;52.710;6.438;2023-05-10T10:23:36;15.30;99.90
55004;DHT22;40900;52.710;6.438;2023-05-10T10:26:03;15.30;99.90
55004;DHT22;40900;52.710;6.438;2023-05-10T10:34:26;15.20;99.90
55004;DHT22;40900;52.710;6.438;2023-05-10T10:36:56;15.20;99.90
55004;DHT22;40900;52.710;6.438;2023-05-10T10:39:26;15.20;99.90
55004;DHT22;40900;52.710;6.438;2023-05-10T10:41:53;15.40;99.90
55004;DHT22;40900;52.710;6.438;2023-05-10T10:47:24;15.50;99.90
55004;DHT22;40900;52.710;6.438;2023-05-10T10:49:51;15.60;99.90
55004;DHT22;40900;52.710;6.438;2023-05-10T10:57:26;15.50;99.90
55004;DHT22;40900;52.710;6.438;2023-05-10T11:00:28;15.70;99.90
55004;DHT22;40900;52.710;6.438;2023-05-10T11:03:14;15.80;99.90
55004;DHT22;40900;52.710;6.438;2023-05-10T11:05:48;15.90;99.90
55004;DHT22;40900;52.710;6.438;2023-05-10T11:08:41;16.00;99.90
55004;DHT22;40900;52.710;6.438;2023-05-10T11:11:08;16.20;99.90
55004;DHT22;40900;52.710;6.438;2023-05-10T11:18:38;16.10;99.90
55004;DHT22;40900;52.710;6.438;2023-05-10T11:21:04;16.00;99.90
55004;DHT22;40900;52.710;6.438;2023-05-10T11:26:08;15.70;99.90
55004;DHT22;40900;52.710;6.438;2023-05-10T11:28:48;15.60;99.90
55004;DHT22;40900;52.710;6.438;2023-05-10T11:31:18;15.60;99.90
55004;DHT22;40900;52.710;6.438;2023-05-10T11:33:49;15.60;99.90
55004;DHT22;40900;52.710;6.438;2023-05-10T11:36:26;15.60;99.90
55004;DHT22;40900;52.710;6.438;2023-05-10T11:38:53;15.60;99.90
55004;DHT22;40900;52.710;6.438;2023-05-10T11:41:20;15.60;99.90
55004;DHT22;40900;52.710;6.438;2023-05-10T11:43:55;15.60;99.90
55004;DHT22;40900;52.710;6.438;2023-05-10T11:46:26;15.70;99.90
55004;DHT22;40900;52.710;6.438;2023-05-10T11:48:59;15.60;99.90
55004;DHT22;40900;52.710;6.438;2023-05-10T11:51:27;15.50;99.90
55004;DHT22;40900;52.710;6.438;2023-05-10T11:53:55;15.60;99.90
55004;DHT22;40900;52.710;6.438;2023-05-10T11:56:21;15.40;99.90
55004;DHT22;40900;52.710;6.438;2023-05-10T11:58:53;15.50;99.90
55004;DHT22;40900;52.710;6.438;2023-05-10T12:01:20;15.40;99.90
55004;DHT22;40900;52.710;6.438;2023-05-10T12:03:46;15.40;99.90
55004;DHT22;40900;52.710;6.438;2023-05-10T12:06:12;15.40;99.90
55004;DHT22;40900;52.710;6.438;2023-05-10T12:08:44;15.30;99.90
55004;DHT22;40900;52.710;6.438;2023-05-10T12:11:13;15.30;99.90
55004;DHT22;40900;52.710;6.438;2023-05-10T12:13:44;15.30;99.90
55004;DHT22;40900;52.710;6.438;2023-05-10T12:16:17;15.40;99.90
55004;DHT22;40900;52.710;6.438;2023-05-10T12:18:44;15.50;99.90
55004;DHT22;40900;52.710;6.438;2023-05-10T12:21:11;15.40;99.90
55004;DHT22;40900;52.710;6.438;2023-05-10T12:23:38;15.30;99.90
55004;DHT22;40900;52.710;6.438;2023-05-10T12:26:05;15.40;99.90
55004;DHT22;40900;52.710;6.438;2023-05-10T12:28:32;15.50;99.90
55004;DHT22;40900;52.710;6.438;2023-05-10T12:30:59;15.60;99.90
55004;DHT22;40900;52.710;6.438;2023-05-10T12:33:25;15.70;99.90
55004;DHT22;40900;52.710;6.438;2023-05-10T12:35:53;15.80;99.90
55004;DHT22;40900;52.710;6.438;2023-05-10T12:38:25;15.70;99.90
55004;DHT22;40900;52.710;6.438;2023-05-10T12:40:52;15.90;99.90
55004;DHT22;40900;52.710;6.438;2023-05-10T12:43:17;15.90;99.90
55004;DHT22;40900;52.710;6.438;2023-05-10T12:45:43;15.90;99.90
55004;DHT22;40900;52.710;6.438;2023-05-10T12:48:13;16.00;99.90
55004;DHT22;40900;52.710;6.438;2023-05-10T12:50:39;16.00;99.90
55004;DHT22;40900;52.710;6.438;2023-05-10T12:53:05;16.10;99.90
55004;DHT22;40900;52.710;6.438;2023-05-10T12:55:30;16.20;99.90
55004;DHT22;40900;52.710;6.438;2023-05-10T12:57:56;16.30;99.90
55004;DHT22;40900;52.710;6.438;2023-05-10T13:00:23;16.20;99.90
55004;DHT22;40900;52.710;6.438;2023-05-10T13:02:49;16.30;99.90
55004;DHT22;40900;52.710;6.438;2023-05-10T13:05:15;16.40;99.90
55004;DHT22;40900;52.710;6.438;2023-05-10T13:07:40;16.40;99.90
55004;DHT22;40900;52.710;6.438;2023-05-10T13:10:07;16.30;99.90
55004;DHT22;40900;52.710;6.438;2023-05-10T13:12:33;16.20;99.90
55004;DHT22;40900;52.710;6.438;2023-05-10T13:14:58;16.10;99.90
55004;DHT22;40900;52.710;6.438;2023-05-10T13:17:25;16.10;99.90
55004;DHT22;40900;52.710;6.438;2023-05-10T13:19:51;16.00;99.90
55004;DHT22;40900;52.710;6.438;2023-05-10T13:22:17;16.10;99.90
55004;DHT22;40900;52.710;6.438;2023-05-10T13:24:43;16.10;99.90
55004;DHT22;40900;52.710;6.438;2023-05-10T13:27:09;16.10;99.90
55004;DHT22;40900;52.710;6.438;2023-05-10T13:29:35;16.00;99.90
55004;DHT22;40900;52.710;6.438;2023-05-10T13:32:01;15.90;99.90
55004;DHT22;40900;52.710;6.438;2023-05-10T13:34:27;15.90;99.90
55004;DHT22;40900;52.710;6.438;2023-05-10T13:36:53;15.80;99.90
55004;DHT22;40900;52.710;6.438;2023-05-10T13:39:20;15.90;99.90
55004;DHT22;40900;52.710;6.438;2023-05-10T13:41:46;15.90;99.90
55004;DHT22;40900;52.710;6.438;2023-05-10T13:44:13;15.90;99.90
55004;DHT22;40900;52.710;6.438;2023-05-10T13:46:40;15.90;99.90
55004;DHT22;40900;52.710;6.438;2023-05-10T13:49:06;16.00;99.90
55004;DHT22;40900;52.710;6.438;2023-05-10T13:51:33;15.90;99.90
55004;DHT22;40900;52.710;6.438;2023-05-10T13:53:59;16.00;99.90
55004;DHT22;40900;52.710;6.438;2023-05-10T13:56:25;16.00;99.90
55004;DHT22;40900;52.710;6.438;2023-05-10T13:58:51;16.00;99.90
55004;DHT22;40900;52.710;6.438;2023-05-10T14:01:16;16.00;99.90
55004;DHT22;40900;52.710;6.438;2023-05-10T14:03:42;15.90;99.90
55004;DHT22;40900;52.710;6.438;2023-05-10T14:06:08;15.90;99.90
55004;DHT22;40900;52.710;6.438;2023-05-10T14:08:34;15.90;99.90
55004;DHT22;40900;52.710;6.438;2023-05-10T14:11:00;15.90;99.90
55004;DHT22;40900;52.710;6.438;2023-05-10T14:13:26;15.80;99.90
55004;DHT22;40900;52.710;6.438;2023-05-10T14:15:53;15.70;99.90
55004;DHT22;40900;52.710;6.438;2023-05-10T14:18:19;15.70;99.90
55004;DHT22;40900;52.710;6.438;2023-05-10T14:20:45;15.60;99.90
55004;DHT22;40900;52.710;6.438;2023-05-10T14:23:11;15.60;99.90
55004;DHT22;40900;52.710;6.438;2023-05-10T14:25:40;15.60;99.90
55004;DHT22;40900;52.710;6.438;2023-05-10T14:28:05;15.60;99.90
55004;DHT22;40900;52.710;6.438;2023-05-10T14:30:32;15.60;99.90
55004;DHT22;40900;52.710;6.438;2023-05-10T14:33:00;15.60;99.90
55004;DHT22;40900;52.710;6.438;2023-05-10T14:35:27;15.60;99.90
55004;DHT22;40900;52.710;6.438;2023-05-10T14:37:53;15.50;99.90
55004;DHT22;40900;52.710;6.438;2023-05-10T14:40:19;15.40;99.90
55004;DHT22;40900;52.710;6.438;2023-05-10T14:42:44;15.40;99.90
55004;DHT22;40900;52.710;6.438;2023-05-10T14:45:10;15.40;99.90
55004;DHT22;40900;52.710;6.438;2023-05-10T14:47:37;15.40;99.90
55004;DHT22;40900;52.710;6.438;2023-05-10T14:50:03;15.40;99.90
55004;DHT22;40900;52.710;6.438;2023-05-10T14:52:29;15.40;99.90
55004;DHT22;40900;52.710;6.438;2023-05-10T14:54:55;15.50;99.90
55004;DHT22;40900;52.710;6.438;2023-05-10T14:57:20;15.60;99.90
55004;DHT22;40900;52.710;6.438;2023-05-10T14:59:46;15.60;99.90
55004;DHT22;40900;52.710;6.438;2023-05-10T15:02:12;15.60;99.90
55004;DHT22;40900;52.710;6.438;2023-05-10T15:04:39;15.50;99.90
55004;DHT22;40900;52.710;6.438;2023-05-10T15:07:05;15.60;99.90
55004;DHT22;40900;52.710;6.438;2023-05-10T15:09:31;15.60;99.90
55004;DHT22;40900;52.710;6.438;2023-05-10T15:11:57;15.60;99.90
55004;DHT22;40900;52.710;6.438;2023-05-10T15:14:23;15.60;99.90
55004;DHT22;40900;52.710;6.438;2023-05-10T15:16:48;15.60;99.90
55004;DHT22;40900;52.710;6.438;2023-05-10T15:19:14;15.70;99.90
55004;DHT22;40900;52.710;6.438;2023-05-10T15:21:40;15.70;99.90
55004;DHT22;40900;52.710;6.438;2023-05-10T15:24:08;15.90;99.90
55004;DHT22;40900;52.710;6.438;2023-05-10T15:26:34;15.90;99.90
55004;DHT22;40900;52.710;6.438;2023-05-10T15:28:59;15.90;99.90
55004;DHT22;40900;52.710;6.438;2023-05-10T15:31:25;16.00;99.90
55004;DHT22;40900;52.710;6.438;2023-05-10T15:33:57;15.90;99.90
55004;DHT22;40900;52.710;6.438;2023-05-10T15:36:24;15.90;99.90
55004;DHT22;40900;52.710;6.438;2023-05-10T15:38:50;16.00;99.90
55004;DHT22;40900;52.710;6.438;2023-05-10T15:41:16;16.10;99.90
55004;DHT22;40900;52.710;6.438;2023-05-10T15:43:42;16.10;99.90
55004;DHT22;40900;52.710;6.438;2023-05-10T15:46:08;16.10;99.90
55004;DHT22;40900;52.710;6.438;2023-05-10T15:48:33;16.10;99.90
55004;DHT22;40900;52.710;6.438;2023-05-10T15:50:59;16.20;99.90
55004;DHT22;40900;52.710;6.438;2023-05-10T15:53:25;16.20;99.90
55004;DHT22;40900;52.710;6.438;2023-05-10T15:55:51;16.20;99.90
55004;DHT22;40900;52.710;6.438;2023-05-10T15:58:23;16.20;99.90
55004;DHT22;40900;52.710;6.438;2023-05-10T16:00:49;16.20;99.90
55004;DHT22;40900;52.710;6.438;2023-05-10T16:03:14;16.30;99.90
55004;DHT22;40900;52.710;6.438;2023-05-10T16:05:40;16.30;99.90
55004;DHT22;40900;52.710;6.438;2023-05-10T16:08:06;16.30;99.90
55004;DHT22;40900;52.710;6.438;2023-05-10T16:10:32;16.30;99.90
55004;DHT22;40900;52.710;6.438;2023-05-10T16:12:58;16.30;99.90
55004;DHT22;40900;52.710;6.438;2023-05-10T16:15:25;16.30;99.90
55004;DHT22;40900;52.710;6.438;2023-05-10T16:17:51;16.30;99.90
55004;DHT22;40900;52.710;6.438;2023-05-10T16:20:16;16.30;99.90
55004;DHT22;40900;52.710;6.438;2023-05-10T16:22:42;16.30;99.90